createdAt,value
2022-07-28T00:02:25.941Z,1.15
2022-07-28T00:07:27.891Z,1.30
2022-07-28T00:12:29.690Z,1.13
2022-07-28T00:17:32.237Z,1.10
2022-07-28T00:22:34.128Z,0.70
2022-07-28T00:27:36.125Z,1.20
2022-07-28T00:32:38.062Z,1.33
2022-07-28T00:37:40.213Z,1.08
2022-07-28T00:42:42.271Z,1.17
2022-07-28T00:47:44.088Z,1.17
2022-07-28T00:52:46.379Z,1.13
2022-07-28T00:57:48.314Z,1.00
2022-07-28T01:02:50.531Z,1.20
2022-07-28T01:08:10.527Z,1.27
2022-07-28T01:13:34.035Z,1.23
2022-07-28T01:18:35.841Z,1.10
2022-07-28T01:23:46.481Z,1.52
2022-07-28T01:28:57.421Z,3.35
2022-07-28T01:34:05.153Z,3.60
2022-07-28T01:39:07.104Z,3.63
2022-07-28T01:44:15.980Z,3.80
2022-07-28T01:49:21.524Z,3.28
2022-07-28T01:54:28.515Z,4.22
2022-07-28T01:59:31.834Z,4.20
2022-07-28T02:04:37.594Z,4.53
2022-07-28T02:09:40.680Z,7.60
2022-07-28T02:14:47.212Z,7.13
2022-07-28T02:19:50.327Z,7.35
2022-07-28T02:24:55.054Z,7.28
2022-07-28T02:30:08.701Z,5.28
2022-07-28T02:35:49.249Z,4.20
2022-07-28T02:40:54.852Z,3.23
2022-07-28T02:46:01.523Z,3.60
2022-07-28T02:51:05.332Z,2.70
2022-07-28T02:56:09.259Z,2.53
2022-07-28T03:01:12.052Z,2.42
2022-07-28T03:06:16.720Z,1.83
2022-07-28T03:11:18.680Z,1.73
2022-07-28T03:16:20.569Z,1.52
2022-07-28T03:21:25.025Z,1.90
2022-07-28T03:26:42.307Z,1.70
2022-07-28T03:31:48.106Z,1.52
2022-07-28T03:37:00.346Z,1.70
2022-07-28T03:42:03.744Z,1.80
2022-07-28T03:47:06.795Z,1.50
2022-07-28T03:52:08.795Z,1.60
2022-07-28T03:57:10.983Z,1.27
2022-07-28T04:02:12.861Z,2.33
2022-07-28T04:07:14.700Z,1.70
2022-07-28T04:12:16.503Z,1.60
2022-07-28T04:17:18.466Z,1.73
2022-07-28T04:22:20.254Z,2.20
2022-07-28T04:27:22.091Z,2.20
2022-07-28T04:32:23.899Z,1.40
2022-07-28T04:37:27.277Z,1.58
2022-07-28T04:42:34.755Z,1.60
2022-07-28T04:47:37.160Z,1.80
2022-07-28T04:52:40.034Z,1.63
2022-07-28T04:57:43.574Z,1.80
2022-07-28T05:02:45.912Z,1.90
2022-07-28T05:07:48.206Z,1.70
2022-07-28T05:12:50.609Z,1.80
2022-07-28T05:17:52.415Z,1.75
2022-07-28T05:22:54.248Z,1.38
2022-07-28T05:27:56.324Z,1.45
2022-07-28T05:33:01.384Z,1.77
2022-07-28T05:38:06.385Z,1.40
2022-07-28T05:43:12.245Z,1.80
2022-07-28T05:48:16.935Z,1.60
2022-07-28T05:53:19.549Z,2.08
2022-07-28T05:58:22.312Z,2.30
2022-07-28T06:03:24.147Z,1.88
2022-07-28T06:08:26.165Z,2.25
2022-07-28T06:13:30.906Z,2.65
2022-07-28T06:18:33.168Z,2.20
2022-07-28T06:23:35.211Z,2.65
2022-07-28T06:28:37.114Z,2.50
2022-07-28T06:33:39.008Z,6.53
2022-07-28T06:38:40.838Z,4.70
2022-07-28T06:43:42.766Z,7.18
2022-07-28T06:48:46.098Z,12.48
2022-07-28T06:53:48.923Z,8.88
2022-07-28T06:58:51.446Z,5.70
2022-07-28T07:03:53.557Z,4.70
2022-07-28T07:08:55.484Z,5.47
2022-07-28T07:13:57.809Z,16.10
2022-07-28T07:18:59.860Z,16.65
2022-07-28T07:24:11.698Z,10.90
2022-07-28T07:29:13.898Z,12.32
2022-07-28T07:34:16.919Z,11.02
2022-07-28T07:39:19.050Z,12.38
2022-07-28T07:44:20.896Z,14.65
2022-07-28T07:49:22.877Z,18.98
2022-07-28T07:54:24.811Z,18.27
2022-07-28T07:59:26.685Z,17.05
2022-07-28T08:04:28.889Z,16.75
2022-07-28T08:09:31.002Z,14.45
2022-07-28T08:14:37.034Z,7.40
2022-07-28T08:19:39.021Z,7.82
2022-07-28T08:24:40.977Z,6.85
2022-07-28T08:29:42.884Z,10.38
2022-07-28T08:34:44.874Z,2.58
2022-07-28T08:39:46.691Z,4.60
2022-07-28T08:45:09.087Z,2.95
2022-07-28T08:50:13.311Z,2.72
2022-07-28T08:55:19.552Z,1.88
2022-07-28T09:00:22.669Z,1.98
2022-07-28T09:05:26.089Z,1.73
2022-07-28T09:10:28.273Z,1.38
2022-07-28T09:15:30.248Z,1.38
2022-07-28T09:20:32.156Z,1.63
2022-07-28T09:25:34.776Z,2.17
2022-07-28T09:30:53.644Z,3.13
2022-07-28T09:35:58.520Z,2.97
2022-07-28T09:41:03.223Z,3.30
2022-07-28T09:46:15.772Z,3.92
2022-07-28T09:51:21.357Z,5.53
2022-07-28T09:56:25.965Z,4.88
2022-07-28T10:01:35.149Z,4.03
2022-07-28T10:06:40.768Z,5.25
2022-07-28T10:11:42.813Z,5.28
2022-07-28T10:16:52.863Z,5.32
2022-07-28T10:22:05.257Z,5.25
2022-07-28T10:27:08.265Z,5.10
2022-07-28T10:32:10.084Z,2.80
2022-07-28T10:37:19.147Z,2.58
2022-07-28T10:42:21.344Z,1.63
2022-07-28T10:47:24.518Z,2.42
2022-07-28T10:52:50.119Z,2.40
2022-07-28T10:58:25.042Z,1.17
2022-07-28T11:03:44.310Z,1.10
2022-07-28T11:08:47.551Z,0.82
2022-07-28T11:13:50.465Z,1.10
2022-07-28T11:19:36.440Z,0.90
2022-07-28T11:24:58.043Z,0.88
2022-07-28T11:30:00.261Z,1.05
2022-07-28T11:35:07.650Z,1.08
2022-07-28T11:40:45.576Z,1.02
2022-07-28T11:46:11.413Z,0.77
2022-07-28T11:51:14.619Z,0.73
2022-07-28T11:56:23.742Z,0.68
2022-07-28T12:01:25.681Z,1.50
2022-07-28T12:06:40.345Z,1.20
2022-07-28T12:11:42.704Z,1.02
2022-07-28T12:16:49.851Z,1.48
2022-07-28T12:21:52.925Z,1.00
2022-07-28T12:26:55.115Z,1.45
2022-07-28T12:31:59.571Z,2.17
2022-07-28T12:37:04.214Z,1.40
2022-07-28T12:42:08.343Z,1.50
2022-07-28T12:47:12.602Z,1.50
2022-07-28T12:52:25.060Z,1.50
2022-07-28T12:57:50.782Z,2.00
2022-07-28T13:02:56.251Z,2.08
2022-07-28T13:08:04.928Z,1.40
2022-07-28T13:13:07.924Z,1.80
2022-07-28T13:18:09.937Z,1.90
2022-07-28T13:23:11.816Z,1.25
2022-07-28T13:28:25.451Z,1.00
2022-07-28T13:33:27.305Z,1.67
2022-07-28T13:38:30.226Z,1.50
2022-07-28T13:43:35.774Z,2.20
2022-07-28T13:48:58.054Z,2.97
2022-07-28T13:54:02.040Z,2.78
2022-07-28T13:59:03.984Z,3.35
2022-07-28T14:04:14.633Z,3.47
2022-07-28T14:09:20.985Z,4.13
2022-07-28T14:14:25.391Z,5.00
2022-07-28T14:19:38.181Z,3.75
2022-07-28T14:24:42.041Z,3.22
2022-07-28T14:29:43.990Z,2.83
2022-07-28T14:34:45.829Z,3.08
2022-07-28T14:39:48.042Z,3.35
2022-07-28T14:44:49.883Z,2.63
2022-07-28T14:49:57.087Z,2.50
2022-07-28T14:55:00.284Z,2.17
2022-07-28T15:00:02.545Z,1.90
2022-07-28T15:05:05.452Z,2.20
2022-07-28T15:10:07.695Z,2.70
2022-07-28T15:15:11.447Z,3.15
2022-07-28T15:20:13.425Z,3.92
2022-07-28T15:25:15.293Z,3.50
2022-07-28T15:30:17.294Z,3.17
2022-07-28T15:35:20.269Z,3.50
2022-07-28T15:40:22.405Z,3.10
2022-07-28T15:45:24.338Z,3.53
2022-07-28T15:50:26.283Z,2.60
2022-07-28T15:55:28.119Z,3.17
2022-07-28T16:00:30.174Z,3.20
2022-07-28T16:05:32.069Z,4.10
2022-07-28T16:10:33.966Z,3.88
2022-07-28T16:15:36.003Z,2.13
2022-07-28T16:20:38.110Z,2.05
2022-07-28T16:25:44.801Z,3.00
2022-07-28T16:30:48.059Z,2.28
2022-07-28T16:35:53.292Z,4.78
2022-07-28T16:40:57.212Z,3.35
2022-07-28T16:46:01.820Z,2.60
2022-07-28T16:51:03.795Z,2.83
2022-07-28T16:56:06.820Z,2.80
2022-07-28T17:01:09.297Z,1.55
2022-07-28T17:06:11.569Z,2.55
2022-07-28T17:11:15.229Z,3.08
2022-07-28T17:16:17.155Z,3.42
2022-07-28T17:21:20.200Z,3.40
2022-07-28T17:31:44.521Z,1.90
2022-07-28T17:36:47.068Z,1.80
2022-07-28T17:41:48.949Z,1.50
2022-07-28T17:46:51.373Z,1.95
2022-07-28T17:51:53.501Z,2.83
2022-07-28T17:56:56.789Z,2.30
2022-07-28T18:01:58.797Z,2.10
2022-07-28T18:07:00.763Z,1.48
2022-07-28T18:12:03.059Z,1.10
2022-07-28T18:17:05.220Z,1.40
2022-07-28T18:22:07.261Z,1.95
2022-07-28T18:27:10.647Z,1.60
2022-07-28T18:32:14.486Z,1.38
2022-07-28T18:37:16.774Z,1.05
2022-07-28T18:42:19.111Z,1.20
2022-07-28T18:47:21.299Z,1.30
2022-07-28T18:52:23.550Z,1.50
2022-07-28T18:57:25.633Z,1.35
2022-07-28T19:02:28.083Z,1.20
2022-07-28T19:07:30.551Z,1.13
2022-07-28T19:12:34.342Z,1.10
2022-07-28T19:17:37.193Z,1.20
2022-07-28T19:22:40.263Z,2.35
2022-07-28T19:27:42.419Z,1.08
2022-07-28T19:32:44.557Z,1.20
2022-07-28T19:37:47.479Z,1.63
2022-07-28T19:42:49.454Z,1.10
2022-07-28T19:47:51.440Z,0.88
2022-07-28T19:52:53.510Z,0.90
2022-07-28T19:57:56.065Z,1.00
2022-07-28T20:02:58.372Z,1.48
2022-07-28T20:08:00.284Z,1.00
2022-07-28T20:13:17.167Z,1.00
2022-07-28T20:18:19.426Z,1.20
2022-07-28T20:23:21.351Z,1.08
2022-07-28T20:28:23.986Z,1.25
2022-07-28T20:33:25.802Z,1.02
2022-07-28T20:38:27.897Z,1.17
2022-07-28T20:43:37.031Z,1.33
2022-07-28T20:48:39.415Z,1.20
2022-07-28T20:53:41.269Z,2.05
2022-07-28T20:58:43.212Z,1.90
2022-07-28T21:03:45.353Z,1.92
2022-07-28T21:08:47.303Z,1.73
2022-07-28T21:13:49.270Z,1.30
2022-07-28T21:18:51.163Z,1.25
2022-07-28T21:23:53.051Z,1.50
2022-07-28T21:34:15.347Z,1.10
2022-07-28T21:39:17.537Z,1.00
2022-07-28T21:44:19.362Z,1.27
2022-07-28T21:49:21.321Z,1.00
2022-07-28T21:54:23.212Z,1.60
2022-07-28T21:59:25.100Z,1.10
2022-07-28T22:04:26.999Z,0.93
2022-07-28T22:09:31.098Z,1.10
2022-07-28T22:14:34.613Z,1.10
2022-07-28T22:19:36.455Z,1.30
2022-07-28T22:24:38.692Z,1.17
2022-07-28T22:29:45.940Z,1.02
2022-07-28T22:34:53.634Z,1.40
2022-07-28T22:39:55.497Z,1.00
2022-07-28T22:44:57.399Z,1.35
2022-07-28T22:49:59.265Z,1.15
2022-07-28T22:55:01.091Z,1.55
2022-07-28T23:00:03.938Z,1.70
2022-07-28T23:05:06.350Z,2.30
2022-07-28T23:10:09.506Z,1.95
2022-07-28T23:15:11.532Z,2.15
2022-07-28T23:20:13.438Z,2.40
2022-07-28T23:25:15.260Z,2.38
2022-07-28T23:30:17.421Z,1.95
2022-07-28T23:35:19.666Z,2.55
2022-07-28T23:40:21.605Z,4.72
2022-07-28T23:45:23.644Z,5.53
2022-07-28T23:50:26.410Z,5.10
2022-07-28T23:55:28.263Z,4.40
